Time;durP1;ratioP1;P1;durP2;ratioP2;P2;SDS_P1;SDS_P2;PMS_P1;PMS_P2;Temp;Humidity;BMP_temperature;BMP_pressure;BME280_temperature;BME280_humidity;BME280_pressure;Samples;Min_cycle;Max_cycle;Signal;HPM_P1;HPM_P2
2021/05/17 00:01:05;;;;;;;0.60;0.50;;;10.80;99.90;;;;;;5092083;28;20234;-38
2021/05/17 00:03:33;;;;;;;0.50;0.50;;;10.80;99.90;;;;;;5092029;28;20207;-38
2021/05/17 00:06:01;;;;;;;0.50;0.50;;;10.70;99.90;;;;;;5092018;28;20202;-38
2021/05/17 00:08:30;;;;;;;1.50;0.45;;;10.70;99.90;;;;;;5091967;28;20286;-38
2021/05/17 00:10:57;;;;;;;1.60;0.60;;;10.80;99.90;;;;;;5091886;28;20234;-39
2021/05/17 00:13:25;;;;;;;0.90;0.57;;;10.80;99.90;;;;;;5091828;28;20241;-38
2021/05/17 00:15:53;;;;;;;0.38;0.38;;;10.70;99.90;;;;;;5091963;28;20673;-38
2021/05/17 00:18:21;;;;;;;0.95;0.40;;;10.70;99.90;;;;;;5092172;28;20297;-40
2021/05/17 00:20:50;;;;;;;0.68;0.57;;;10.70;99.90;;;;;;5091489;28;20241;-39
2021/05/17 00:23:17;;;;;;;0.50;0.43;;;10.60;99.90;;;;;;5091653;28;20202;-38
2021/05/17 00:25:46;;;;;;;0.65;0.65;;;10.60;99.90;;;;;;5091474;28;20321;-38
2021/05/17 00:28:15;;;;;;;0.82;0.50;;;10.50;99.90;;;;;;5091850;28;20203;-38
2021/05/17 00:30:42;;;;;;;0.52;0.50;;;10.50;99.90;;;;;;5091900;28;20707;-38
2021/05/17 00:33:10;;;;;;;0.88;0.70;;;10.40;99.90;;;;;;5092066;28;20661;-39
2021/05/17 00:35:38;;;;;;;2.30;0.70;;;10.40;99.90;;;;;;5091908;28;20571;-40
2021/05/17 00:38:06;;;;;;;0.70;0.50;;;10.40;99.90;;;;;;5091597;28;20692;-39
2021/05/17 00:40:33;;;;;;;0.47;0.47;;;10.40;99.90;;;;;;5091837;28;20214;-38
2021/05/17 00:43:06;;;;;;;0.45;0.40;;;10.30;99.90;;;;;;5091876;28;20625;-39
2021/05/17 00:45:34;;;;;;;0.40;0.40;;;10.30;99.90;;;;;;5091866;28;20692;-39
2021/05/17 00:48:03;;;;;;;0.70;0.43;;;10.30;99.90;;;;;;5092043;28;20206;-40
2021/05/17 00:50:30;;;;;;;0.68;0.50;;;10.30;99.90;;;;;;5091877;28;20234;-39
2021/05/17 00:52:58;;;;;;;0.68;0.40;;;10.20;99.90;;;;;;5091995;28;20277;-38
2021/05/17 00:55:28;;;;;;;1.42;0.65;;;10.20;99.90;;;;;;5091655;28;20294;-38
2021/05/17 00:57:56;;;;;;;0.55;0.55;;;10.10;99.90;;;;;;5092043;28;20210;-38
2021/05/17 01:00:27;;;;;;;0.60;0.60;;;10.20;99.90;;;;;;5091815;28;20657;-38
2021/05/17 01:02:55;;;;;;;0.85;0.82;;;10.10;99.90;;;;;;5092167;28;20484;-40
2021/05/17 01:05:23;;;;;;;0.60;0.50;;;10.20;99.90;;;;;;5091794;28;20626;-38
2021/05/17 01:07:50;;;;;;;1.67;0.73;;;10.10;99.90;;;;;;5091773;28;20301;-38
2021/05/17 01:10:19;;;;;;;1.00;0.57;;;10.10;99.90;;;;;;5091643;28;20242;-39
2021/05/17 01:12:50;;;;;;;0.40;0.40;;;10.00;99.90;;;;;;5091849;28;20297;-38
2021/05/17 01:15:19;;;;;;;1.05;0.50;;;10.00;99.90;;;;;;5091880;28;20246;-38
2021/05/17 01:17:48;;;;;;;3.40;0.70;;;10.00;99.90;;;;;;5091591;28;20211;-38
2021/05/17 01:20:18;;;;;;;1.48;0.60;;;10.00;99.90;;;;;;5091619;28;20310;-38
2021/05/17 01:22:52;;;;;;;1.05;0.50;;;10.00;99.90;;;;;;5091388;28;20297;-38
2021/05/17 01:25:22;;;;;;;0.60;0.60;;;10.00;99.90;;;;;;5091561;28;20753;-39
2021/05/17 01:27:51;;;;;;;1.00;0.65;;;10.00;99.90;;;;;;5092027;28;20507;-38
2021/05/17 01:30:20;;;;;;;0.82;0.70;;;10.00;99.90;;;;;;5091447;28;20220;-39
2021/05/17 01:32:50;;;;;;;1.48;0.93;;;9.90;99.90;;;;;;5092907;28;20234;-38
2021/05/17 01:35:19;;;;;;;0.65;0.60;;;9.90;99.90;;;;;;5095198;28;20214;-38
2021/05/17 01:37:47;;;;;;;0.93;0.50;;;9.90;99.90;;;;;;5095210;28;20234;-39
2021/05/17 01:40:19;;;;;;;1.33;0.80;;;9.90;99.90;;;;;;5095068;28;20310;-38
2021/05/17 01:42:49;;;;;;;0.93;0.75;;;9.90;99.90;;;;;;5095137;28;20241;-38
2021/05/17 01:45:16;;;;;;;1.02;0.70;;;9.90;99.90;;;;;;5094929;28;20272;-37
2021/05/17 01:47:45;;;;;;;1.27;0.68;;;9.90;99.90;;;;;;5094807;28;20298;-38
2021/05/17 01:50:15;;;;;;;0.80;0.80;;;10.00;99.90;;;;;;5095052;28;20293;-39
2021/05/17 01:52:43;;;;;;;1.08;0.85;;;10.00;99.90;;;;;;5094917;28;20659;-38
2021/05/17 01:55:12;;;;;;;2.08;0.60;;;10.00;99.90;;;;;;5094810;28;20293;-38
2021/05/17 01:57:40;;;;;;;2.30;0.82;;;10.10;99.90;;;;;;5094860;28;20207;-38
2021/05/17 02:00:12;;;;;;;1.05;0.80;;;10.10;99.90;;;;;;5094474;28;20613;-38
2021/05/17 02:02:39;;;;;;;0.70;0.60;;;10.20;99.90;;;;;;5094915;28;20203;-37
2021/05/17 02:05:08;;;;;;;0.57;0.52;;;10.20;99.90;;;;;;5094774;28;20203;-39
2021/05/17 02:07:36;;;;;;;1.10;0.63;;;10.30;99.90;;;;;;5094444;28;20293;-38
2021/05/17 02:10:06;;;;;;;0.68;0.60;;;10.40;99.90;;;;;;5094469;28;20289;-38
2021/05/17 02:12:35;;;;;;;0.63;0.60;;;10.40;99.90;;;;;;5094429;28;20260;-38
2021/05/17 02:15:04;;;;;;;2.00;0.88;;;10.40;99.90;;;;;;5094212;28;20206;-38
2021/05/17 02:17:33;;;;;;;0.90;0.70;;;10.40;99.90;;;;;;5094554;28;20604;-38
2021/05/17 02:20:00;;;;;;;6.63;0.80;;;10.50;99.90;;;;;;5094183;28;20317;-38
2021/05/17 02:22:28;;;;;;;0.43;0.43;;;10.50;99.90;;;;;;5094334;28;20372;-40
2021/05/17 02:24:56;;;;;;;2.00;1.00;;;10.40;99.90;;;;;;5093883;28;20653;-38
2021/05/17 02:27:23;;;;;;;1.25;0.73;;;10.40;99.90;;;;;;5094342;28;20203;-38
2021/05/17 02:29:51;;;;;;;0.57;0.40;;;10.30;99.90;;;;;;5094162;28;20261;-40
2021/05/17 02:32:20;;;;;;;1.00;0.90;;;10.30;99.90;;;;;;5094151;28;20297;-38
2021/05/17 02:34:49;;;;;;;0.63;0.40;;;10.20;99.90;;;;;;5093868;28;20722;-38
2021/05/17 02:37:17;;;;;;;1.30;0.50;;;10.20;99.90;;;;;;5093978;28;20238;-39
2021/05/17 02:39:45;;;;;;;1.02;0.60;;;10.20;99.90;;;;;;5093687;28;20779;-39
2021/05/17 02:42:17;;;;;;;1.13;0.55;;;10.20;99.90;;;;;;5094041;28;20209;-39
2021/05/17 02:44:44;;;;;;;0.43;0.43;;;10.30;99.90;;;;;;5094054;28;20207;-40
2021/05/17 02:47:12;;;;;;;0.98;0.70;;;10.30;99.90;;;;;;5093862;28;20675;-39
2021/05/17 02:49:41;;;;;;;0.60;0.60;;;10.40;99.90;;;;;;5093643;28;20203;-39
2021/05/17 02:52:10;;;;;;;0.50;0.50;;;10.40;99.90;;;;;;5093730;28;20230;-39
2021/05/17 02:54:39;;;;;;;0.93;0.63;;;10.40;99.90;;;;;;5093740;28;20253;-39
2021/05/17 02:57:12;;;;;;;0.82;0.60;;;10.40;99.90;;;;;;5093589;28;20298;-39
2021/05/17 03:00:06;;;;;;;0.50;0.50;;;10.40;99.90;;;;;;5093840;28;20330;-39
2021/05/17 03:02:40;;;;;;;0.40;0.40;;;10.40;99.90;;;;;;5093422;28;20210;-39
2021/05/17 03:05:09;;;;;;;0.50;0.38;;;10.30;99.90;;;;;;5093790;28;20304;-38
2021/05/17 03:07:40;;;;;;;0.50;0.50;;;10.30;99.90;;;;;;5093437;28;20299;-39
2021/05/17 03:10:09;;;;;;;0.57;0.57;;;10.30;99.90;;;;;;5093437;28;20206;-40
2021/05/17 03:12:40;;;;;;;7.07;0.68;;;10.30;99.90;;;;;;5093459;28;20250;-39
2021/05/17 03:15:09;;;;;;;0.90;0.57;;;10.30;99.90;;;;;;5093166;28;20742;-39
2021/05/17 03:17:37;;;;;;;0.40;0.40;;;10.30;99.90;;;;;;5093390;28;20210;-38
2021/05/17 03:20:06;;;;;;;0.50;0.50;;;10.40;99.90;;;;;;5093285;28;20440;-38
2021/05/17 03:22:34;;;;;;;0.88;0.45;;;10.40;99.90;;;;;;5093340;28;20250;-38
2021/05/17 03:25:06;;;;;;;0.43;0.40;;;10.40;99.90;;;;;;5092578;28;20298;-37
2021/05/17 03:27:34;;;;;;;1.38;0.40;;;10.40;99.90;;;;;;5092884;28;20207;-38
2021/05/17 03:30:01;;;;;;;1.73;0.60;;;10.40;99.90;;;;;;5092990;28;20199;-38
2021/05/17 03:32:28;;;;;;;0.98;0.60;;;10.40;99.90;;;;;;5092702;28;20211;-38
2021/05/17 03:34:56;;;;;;;0.88;0.40;;;10.50;99.90;;;;;;5092726;28;20310;-38
2021/05/17 03:37:24;;;;;;;0.63;0.63;;;10.40;99.90;;;;;;5092650;28;20210;-38
2021/05/17 03:39:51;;;;;;;1.90;0.70;;;10.40;99.90;;;;;;5092410;28;20343;-38
2021/05/17 03:42:19;;;;;;;2.45;0.70;;;10.40;99.90;;;;;;5092605;28;20301;-39
2021/05/17 03:44:47;;;;;;;0.80;0.60;;;10.40;99.90;;;;;;5092908;28;20234;-38
2021/05/17 03:47:14;;;;;;;0.70;0.63;;;10.40;99.90;;;;;;5092687;28;20213;-39
2021/05/17 03:49:42;;;;;;;2.17;0.60;;;10.40;99.90;;;;;;5092484;28;20684;-39
2021/05/17 03:52:09;;;;;;;0.52;0.52;;;10.40;99.90;;;;;;5092536;28;20629;-39
2021/05/17 03:54:37;;;;;;;0.60;0.60;;;10.40;99.90;;;;;;5092156;28;20298;-39
2021/05/17 03:57:05;;;;;;;0.70;0.70;;;10.40;99.90;;;;;;5092486;28;20240;-38
2021/05/17 03:59:35;;;;;;;1.20;0.70;;;10.40;99.90;;;;;;5092312;28;20689;-39
2021/05/17 04:02:03;;;;;;;1.88;0.90;;;10.40;99.90;;;;;;5092224;28;20241;-37
2021/05/17 04:04:36;;;;;;;1.17;0.68;;;10.40;99.90;;;;;;5092039;28;20736;-38
2021/05/17 04:07:11;;;;;;;1.38;0.60;;;10.40;99.90;;;;;;5092007;28;20238;-38
2021/05/17 04:15:16;;;;;;;1.42;0.80;;;10.40;99.90;;;;;;5071698;28;20322;-40
2021/05/17 04:17:44;;;;;;;3.80;0.80;;;10.40;99.90;;;;;;5092017;28;20593;-37
2021/05/17 04:20:13;;;;;;;0.80;0.63;;;10.40;99.90;;;;;;5091699;28;20723;-39
2021/05/17 04:22:40;;;;;;;3.78;1.20;;;10.40;99.90;;;;;;5092177;28;20271;-39
2021/05/17 04:25:09;;;;;;;1.85;1.38;;;10.50;99.90;;;;;;5091800;28;20243;-39
2021/05/17 04:27:37;;;;;;;3.90;1.00;;;10.60;99.90;;;;;;5091748;28;20289;-38
2021/05/17 04:30:06;;;;;;;1.67;1.00;;;10.60;99.90;;;;;;5091587;28;20638;-39
2021/05/17 04:32:34;;;;;;;2.15;1.17;;;10.70;99.90;;;;;;5091942;28;20233;-39
2021/05/17 04:35:02;;;;;;;0.85;0.85;;;10.80;99.90;;;;;;5091713;28;20210;-39
2021/05/17 04:37:30;;;;;;;2.55;0.80;;;10.80;99.90;;;;;;5091957;28;20252;-39
2021/05/17 04:39:57;;;;;;;2.35;1.10;;;10.80;99.90;;;;;;5092024;28;20254;-39
2021/05/17 04:42:25;;;;;;;1.35;1.08;;;10.80;99.90;;;;;;5091960;28;20744;-38
2021/05/17 04:44:52;;;;;;;4.03;1.05;;;10.80;99.90;;;;;;5091890;28;20202;-41
2021/05/17 04:47:20;;;;;;;2.13;0.93;;;10.90;99.90;;;;;;5092117;28;20207;-38
2021/05/17 04:49:48;;;;;;;3.40;1.05;;;10.90;99.90;;;;;;5091968;28;20298;-38
2021/05/17 04:52:15;;;;;;;3.58;1.77;;;10.90;99.90;;;;;;5092026;28;20207;-38
2021/05/17 04:54:43;;;;;;;2.53;1.67;;;10.80;99.90;;;;;;5091937;28;20206;-39
2021/05/17 04:57:10;;;;;;;2.53;1.17;;;10.80;99.90;;;;;;5091772;28;20343;-38
2021/05/17 04:59:58;;;;;;;1.23;1.02;;;10.80;99.90;;;;;;5091756;28;20567;-38
2021/05/17 05:02:25;;;;;;;1.48;1.13;;;10.80;99.90;;;;;;5091770;28;20302;-39
2021/05/17 05:04:53;;;;;;;4.50;1.00;;;10.80;99.90;;;;;;5091858;28;20305;-38
2021/05/17 05:07:21;;;;;;;2.58;1.38;;;10.80;99.90;;;;;;5092626;28;20285;-39
2021/05/17 05:09:48;;;;;;;1.90;0.98;;;10.80;99.90;;;;;;5095492;28;20244;-39
2021/05/17 05:12:16;;;;;;;4.80;0.93;;;10.80;99.90;;;;;;5095525;28;20289;-39
2021/05/17 05:14:43;;;;;;;4.13;1.58;;;10.80;99.90;;;;;;5095640;28;20246;-39
2021/05/17 05:17:11;;;;;;;4.18;0.98;;;10.80;99.90;;;;;;5095368;28;20242;-39
2021/05/17 05:19:38;;;;;;;3.90;1.50;;;10.80;99.90;;;;;;5095265;28;20290;-39
2021/05/17 05:22:06;;;;;;;2.35;1.55;;;10.90;99.90;;;;;;5095109;28;20744;-41
2021/05/17 05:24:34;;;;;;;3.60;2.53;;;10.90;99.90;;;;;;5095143;28;20333;-38
2021/05/17 05:27:08;;;;;;;5.43;3.33;;;10.90;99.90;;;;;;5095063;28;20516;-38
2021/05/17 05:29:45;;;;;;;11.20;2.22;;;10.90;99.90;;;;;;5094927;28;20249;-39
2021/05/17 05:32:23;;;;;;;3.83;2.65;;;10.90;99.90;;;;;;5094953;28;20292;-39
2021/05/17 05:34:51;;;;;;;3.83;1.35;;;10.90;99.90;;;;;;5094973;28;20654;-39
2021/05/17 05:37:19;;;;;;;4.60;1.77;;;11.00;99.90;;;;;;5094991;28;20203;-39
2021/05/17 05:39:46;;;;;;;2.60;1.52;;;11.00;99.90;;;;;;5094835;28;20231;-39
2021/05/17 05:42:14;;;;;;;6.18;1.27;;;11.10;99.90;;;;;;5095071;28;20246;-39
2021/05/17 05:44:46;;;;;;;3.90;1.25;;;11.20;99.90;;;;;;5094985;28;20242;-39
2021/05/17 05:47:16;;;;;;;1.83;1.08;;;11.30;99.90;;;;;;5094883;28;20642;-39
2021/05/17 05:49:44;;;;;;;4.93;1.30;;;11.40;99.90;;;;;;5094790;28;20668;-39
2021/05/17 05:52:11;;;;;;;4.50;2.05;;;11.50;99.90;;;;;;5094965;28;20238;-40
2021/05/17 05:54:40;;;;;;;3.63;1.50;;;11.60;99.90;;;;;;5094791;28;20385;-39
2021/05/17 05:57:08;;;;;;;4.20;1.33;;;11.70;99.90;;;;;;5094756;28;20305;-39
2021/05/17 05:59:36;;;;;;;3.03;1.48;;;11.80;99.90;;;;;;5094655;28;20575;-37
2021/05/17 06:02:04;;;;;;;5.28;1.42;;;11.90;99.90;;;;;;5094777;28;20293;-40
2021/05/17 06:04:32;;;;;;;2.88;1.17;;;12.00;99.90;;;;;;5094634;28;20313;-40
2021/05/17 06:06:59;;;;;;;4.68;1.52;;;11.90;99.90;;;;;;5094689;28;20206;-39
2021/05/17 06:09:28;;;;;;;3.22;1.73;;;11.90;99.90;;;;;;5094491;28;20413;-39
2021/05/17 06:11:57;;;;;;;3.13;1.05;;;12.00;99.90;;;;;;5094385;28;20719;-40
2021/05/17 06:14:25;;;;;;;5.57;1.50;;;12.00;99.90;;;;;;5094374;28;20238;-40
2021/05/17 06:16:52;;;;;;;6.00;1.67;;;12.00;99.90;;;;;;5094219;28;20740;-39
2021/05/17 06:19:20;;;;;;;6.05;1.63;;;11.90;99.90;;;;;;5093899;28;20234;-40
2021/05/17 06:21:48;;;;;;;3.17;0.90;;;12.00;99.90;;;;;;5094248;28;20226;-39
2021/05/17 06:24:19;;;;;;;4.47;1.23;;;12.00;99.90;;;;;;5094046;28;20598;-39
2021/05/17 06:26:47;;;;;;;3.28;0.82;;;12.00;99.90;;;;;;5094020;28;20678;-39
2021/05/17 06:29:15;;;;;;;5.10;1.38;;;12.00;99.90;;;;;;5094250;28;20207;-39
2021/05/17 06:31:46;;;;;;;2.17;1.27;;;11.90;99.90;;;;;;5094270;28;20297;-38
2021/05/17 06:34:14;;;;;;;2.42;0.98;;;11.90;99.90;;;;;;5094086;28;20297;-37
2021/05/17 06:36:41;;;;;;;1.80;1.00;;;11.90;99.90;;;;;;5094000;28;20643;-36
2021/05/17 06:39:12;;;;;;;5.25;1.00;;;11.90;99.90;;;;;;5093836;28;20234;-37
2021/05/17 06:41:40;;;;;;;2.17;1.20;;;11.90;99.90;;;;;;5093943;28;20265;-39
2021/05/17 06:44:09;;;;;;;4.45;1.40;;;11.90;99.90;;;;;;5094158;28;20219;-38
2021/05/17 06:46:38;;;;;;;1.55;1.10;;;11.90;99.90;;;;;;5093702;28;20206;-39
2021/05/17 06:49:06;;;;;;;3.83;1.30;;;12.00;99.90;;;;;;5093794;28;20251;-37
2021/05/17 06:51:34;;;;;;;3.60;1.55;;;12.10;99.90;;;;;;5093593;28;20199;-40
2021/05/17 06:54:03;;;;;;;5.20;1.85;;;12.10;99.90;;;;;;5093558;28;20545;-39
2021/05/17 06:56:39;;;;;;;3.15;1.23;;;12.10;99.90;;;;;;5093554;28;20760;-40
2021/05/17 06:59:12;;;;;;;3.38;1.27;;;12.20;99.90;;;;;;5093629;28;20234;-40
2021/05/17 07:01:40;;;;;;;4.15;1.30;;;12.20;99.90;;;;;;5093284;28;20269;-40
2021/05/17 07:04:10;;;;;;;3.63;1.50;;;12.20;99.90;;;;;;5093039;28;20657;-40
2021/05/17 07:06:40;;;;;;;2.33;1.52;;;12.20;99.90;;;;;;5093458;28;20297;-40
2021/05/17 07:11:57;;;;;;;6.10;1.42;;;12.00;99.90;;;;;;5093199;28;20245;-40
2021/05/17 07:14:25;;;;;;;4.15;1.27;;;11.90;99.90;;;;;;5093187;28;20286;-39
2021/05/17 07:16:53;;;;;;;3.90;1.85;;;11.90;99.90;;;;;;5093090;28;20720;-40
2021/05/17 07:19:24;;;;;;;6.07;2.15;;;11.80;99.90;;;;;;5093256;28;20213;-40
2021/05/17 07:24:37;;;;;;;2.60;1.00;;;11.90;99.90;;;;;;5092914;28;20230;-38
2021/05/17 07:27:06;;;;;;;4.50;1.23;;;12.00;99.90;;;;;;5092777;28;20289;-39
2021/05/17 07:29:35;;;;;;;2.92;1.40;;;12.10;99.90;;;;;;5092590;28;20238;-39
2021/05/17 07:32:07;;;;;;;2.67;1.65;;;12.20;99.90;;;;;;5092809;28;20285;-38
2021/05/17 07:34:36;;;;;;;2.85;1.50;;;12.20;99.90;;;;;;5092954;28;20211;-38
2021/05/17 07:37:04;;;;;;;4.03;1.63;;;12.20;99.90;;;;;;5092698;28;20211;-38
2021/05/17 07:39:33;;;;;;;3.10;1.40;;;12.30;99.90;;;;;;5092515;28;20206;-39
2021/05/17 07:42:00;;;;;;;3.60;1.40;;;12.30;99.90;;;;;;5092756;28;20233;-39
2021/05/17 07:44:30;;;;;;;4.55;1.60;;;12.30;99.90;;;;;;5092532;28;20242;-39
2021/05/17 07:46:57;;;;;;;3.30;1.42;;;12.30;99.90;;;;;;5092738;28;20226;-38
2021/05/17 07:49:35;;;;;;;2.95;1.30;;;12.40;99.90;;;;;;5092409;28;20298;-43
2021/05/17 07:52:04;;;;;;;3.33;1.80;;;12.30;99.90;;;;;;5092303;28;20301;-39
2021/05/17 07:54:31;;;;;;;3.90;1.83;;;12.30;99.90;;;;;;5092511;28;20272;-38
2021/05/17 07:56:59;;;;;;;2.83;1.38;;;12.30;99.90;;;;;;5092428;28;20237;-39
2021/05/17 07:59:29;;;;;;;2.35;1.40;;;12.40;99.90;;;;;;5091972;28;20362;-38
2021/05/17 08:01:57;;;;;;;4.00;1.45;;;12.50;99.90;;;;;;5092126;28;20266;-38
2021/05/17 08:04:25;;;;;;;3.33;1.10;;;12.60;99.90;;;;;;5092425;28;20202;-38
2021/05/17 08:06:53;;;;;;;2.53;1.05;;;12.70;99.90;;;;;;5092163;28;20238;-38
2021/05/17 08:09:20;;;;;;;3.08;1.25;;;12.80;99.90;;;;;;5092299;28;20261;-39
2021/05/17 08:11:49;;;;;;;3.17;1.92;;;12.90;99.90;;;;;;5092121;28;20246;-40
2021/05/17 08:14:17;;;;;;;3.95;1.75;;;12.90;99.90;;;;;;5092224;28;20264;-39
2021/05/17 08:16:45;;;;;;;3.28;1.20;;;13.10;99.90;;;;;;5092030;28;20211;-38
2021/05/17 08:19:13;;;;;;;4.78;1.55;;;13.30;99.90;;;;;;5091907;28;20684;-39
2021/05/17 08:21:42;;;;;;;3.58;1.00;;;13.40;99.90;;;;;;5092163;28;20230;-40
2021/05/17 08:24:10;;;;;;;0.77;0.68;;;13.40;99.90;;;;;;5091233;28;20203;-39
2021/05/17 08:26:39;;;;;;;1.20;0.80;;;13.40;99.90;;;;;;5092059;28;20259;-48
2021/05/17 08:29:07;;;;;;;2.10;1.17;;;13.40;99.90;;;;;;5091934;28;20256;-39
2021/05/17 08:31:35;;;;;;;2.33;1.15;;;13.50;99.90;;;;;;5091958;28;20294;-41
2021/05/17 08:34:03;;;;;;;1.40;0.82;;;13.70;99.90;;;;;;5091855;28;20215;-41
2021/05/17 08:36:30;;;;;;;1.73;0.90;;;13.80;99.90;;;;;;5091972;28;20249;-41
2021/05/17 08:38:59;;;;;;;3.65;1.67;;;13.90;99.90;;;;;;5091974;28;20333;-41
2021/05/17 08:41:27;;;;;;;2.53;0.82;;;14.10;99.90;;;;;;5092161;28;20226;-39
2021/05/17 08:43:56;;;;;;;5.60;2.72;;;14.30;99.90;;;;;;5095950;28;20207;-39
2021/05/17 08:46:24;;;;;;;4.30;1.00;;;14.40;99.90;;;;;;5095675;28;20242;-39
2021/05/17 08:48:51;;;;;;;3.90;1.83;;;14.50;99.70;;;;;;5095903;28;20257;-39
2021/05/17 08:51:21;;;;;;;1.73;0.68;;;14.40;99.60;;;;;;5095940;28;20290;-39
2021/05/17 08:53:50;;;;;;;1.92;0.65;;;14.20;99.20;;;;;;5095807;28;20214;-41
2021/05/17 08:56:19;;;;;;;1.88;0.60;;;14.00;99.20;;;;;;5095753;28;20759;-38
2021/05/17 08:58:47;;;;;;;4.53;0.88;;;13.90;99.40;;;;;;5095676;28;20232;-40
2021/05/17 09:01:15;;;;;;;1.80;0.98;;;13.80;99.70;;;;;;5095849;28;20266;-40
2021/05/17 09:03:56;;;;;;;2.38;0.80;;;13.90;99.90;;;;;;5095810;28;20207;-39
2021/05/17 09:06:36;;;;;;;1.95;0.80;;;13.90;99.90;;;;;;5095721;28;20202;-39
2021/05/17 09:09:05;;;;;;;2.33;0.93;;;13.90;99.90;;;;;;5095415;28;20737;-40
2021/05/17 09:11:34;;;;;;;0.93;0.65;;;14.00;99.80;;;;;;5095380;28;20246;-39
2021/05/17 09:14:09;;;;;;;0.70;0.70;;;14.30;99.20;;;;;;5095307;28;20217;-40
2021/05/17 09:16:53;;;;;;;1.10;0.80;;;14.70;98.80;;;;;;5095306;28;20621;-39
2021/05/17 09:19:23;;;;;;;1.25;1.00;;;14.90;97.30;;;;;;5095390;28;20217;-40
2021/05/17 09:22:08;;;;;;;1.27;0.75;;;15.00;97.60;;;;;;5095206;28;20337;-39
2021/05/17 09:24:43;;;;;;;1.42;0.90;;;14.90;97.90;;;;;;5095193;28;20311;-40
2021/05/17 09:27:14;;;;;;;2.72;0.60;;;14.60;98.40;;;;;;5095233;28;20302;-39
2021/05/17 09:29:43;;;;;;;0.57;0.50;;;14.40;98.70;;;;;;5095013;28;20207;-39
2021/05/17 09:32:19;;;;;;;1.23;0.50;;;14.40;98.80;;;;;;5094932;28;20264;-39
2021/05/17 09:34:49;;;;;;;0.75;0.50;;;14.40;98.50;;;;;;5095087;28;20727;-40
2021/05/17 09:37:16;;;;;;;3.47;3.08;;;14.40;98.30;;;;;;5094975;28;20207;-40
2021/05/17 09:39:50;;;;;;;2.03;1.05;;;14.50;98.00;;;;;;5094819;28;20207;-40
2021/05/17 09:42:22;;;;;;;1.58;0.60;;;14.60;97.40;;;;;;5094803;28;20218;-40
2021/05/17 09:44:52;;;;;;;1.98;0.55;;;14.90;96.80;;;;;;5094805;28;20744;-40
2021/05/17 09:47:24;;;;;;;1.20;0.40;;;15.10;96.60;;;;;;5095026;28;20209;-41
2021/05/17 09:49:53;;;;;;;0.63;0.60;;;15.20;96.00;;;;;;5094691;28;20238;-41
2021/05/17 09:52:22;;;;;;;1.95;0.50;;;15.30;95.70;;;;;;5094405;28;20622;-40
2021/05/17 09:55:00;;;;;;;1.08;0.40;;;15.30;95.30;;;;;;5094068;28;20259;-40
2021/05/17 09:57:32;;;;;;;1.13;0.65;;;15.40;95.00;;;;;;5094835;28;20586;-40
2021/05/17 10:00:07;;;;;;;1.17;0.50;;;15.70;94.80;;;;;;5094681;28;20271;-40
2021/05/17 10:02:40;;;;;;;1.83;0.70;;;16.00;94.40;;;;;;5094344;28;20248;-40
2021/05/17 10:05:15;;;;;;;0.52;0.50;;;16.40;93.60;;;;;;5094303;28;20248;-41
2021/05/17 10:07:43;;;;;;;0.32;0.32;;;16.30;93.50;;;;;;5094226;28;20264;-40
2021/05/17 10:10:12;;;;;;;2.17;0.85;;;16.20;93.40;;;;;;5094018;28;20256;-40
2021/05/17 10:12:41;;;;;;;1.38;0.50;;;15.80;95.00;;;;;;5094387;28;20242;-40
2021/05/17 10:15:12;;;;;;;0.95;0.55;;;15.20;97.30;;;;;;5093872;28;20206;-39
2021/05/17 10:17:43;;;;;;;1.45;0.90;;;14.60;98.50;;;;;;5094317;28;20230;-40
2021/05/17 10:20:16;;;;;;;0.47;0.47;;;14.20;99.40;;;;;;5094028;28;20209;-40
2021/05/17 10:22:44;;;;;;;1.00;0.40;;;14.20;99.90;;;;;;5094148;28;20237;-40
2021/05/17 10:25:15;;;;;;;3.42;0.57;;;14.30;99.90;;;;;;5093695;28;20753;-40
2021/05/17 10:27:47;;;;;;;2.22;0.57;;;14.40;99.50;;;;;;5093612;28;20246;-40
2021/05/17 10:30:20;;;;;;;1.67;1.05;;;14.70;99.50;;;;;;5093847;28;20335;-40
2021/05/17 10:32:54;;;;;;;4.63;3.08;;;15.00;99.40;;;;;;5094287;28;20290;-40
2021/05/17 10:35:25;;;;;;;3.22;2.67;;;15.30;99.20;;;;;;5093767;28;20206;-40
2021/05/17 10:38:20;;;;;;;1.75;1.30;;;15.30;98.70;;;;;;5094082;28;20627;-40
2021/05/17 10:40:54;;;;;;;1.17;0.57;;;15.30;99.00;;;;;;5093762;28;20628;-40
2021/05/17 10:43:55;;;;;;;1.13;0.73;;;15.40;98.70;;;;;;5093749;28;20261;-40
2021/05/17 10:46:40;;;;;;;0.85;0.52;;;15.30;98.20;;;;;;5093749;28;20297;-40
2021/05/17 10:49:30;;;;;;;0.85;0.60;;;15.20;98.30;;;;;;5093868;28;20577;-40
2021/05/17 10:52:23;;;;;;;2.33;0.70;;;15.30;98.40;;;;;;5093227;28;20218;-42
2021/05/17 10:55:02;;;;;;;0.85;0.50;;;15.50;98.30;;;;;;5093551;28;20268;-40
2021/05/17 10:57:33;;;;;;;4.35;1.30;;;15.60;97.70;;;;;;5093249;28;20665;-40
2021/05/17 11:02:47;;;;;;;1.80;0.77;;;15.00;98.90;;;;;;5093388;28;20231;-39
2021/05/17 11:05:18;;;;;;;2.53;0.60;;;14.50;99.40;;;;;;5092233;28;20238;-41
2021/05/17 11:07:47;;;;;;;1.70;0.90;;;14.20;99.90;;;;;;5093503;28;20275;-40
2021/05/17 11:10:20;;;;;;;1.63;0.93;;;14.10;99.90;;;;;;5095504;28;20210;-41
2021/05/17 11:13:06;;;;;;;1.17;0.80;;;14.30;99.90;;;;;;5091547;28;20209;-40
2021/05/17 11:15:56;;;;;;;0.90;0.60;;;14.60;99.90;;;;;;5093267;28;20202;-42
2021/05/17 11:18:43;;;;;;;0.60;0.55;;;14.90;99.90;;;;;;5093142;28;20269;-40
2021/05/17 11:21:21;;;;;;;0.98;0.65;;;15.00;99.20;;;;;;5093371;28;20291;-40
2021/05/17 11:24:06;;;;;;;3.90;0.93;;;15.10;99.40;;;;;;5093197;28;20210;-41
2021/05/17 11:26:51;;;;;;;0.88;0.50;;;15.40;99.10;;;;;;5092917;28;20246;-41
2021/05/17 11:29:31;;;;;;;1.15;0.77;;;15.40;97.60;;;;;;5093164;28;20638;-40
2021/05/17 11:32:19;;;;;;;0.85;0.57;;;15.20;97.70;;;;;;5093253;28;20210;-41
2021/05/17 11:35:01;;;;;;;1.88;0.88;;;14.70;99.20;;;;;;5093478;28;20240;-42
2021/05/17 11:37:30;;;;;;;2.50;1.48;;;14.30;99.90;;;;;;5093047;28;20724;-41
2021/05/17 11:40:27;;;;;;;1.95;0.73;;;13.90;99.90;;;;;;5092790;28;20210;-41
2021/05/17 11:42:58;;;;;;;3.28;0.80;;;13.50;99.90;;;;;;5092091;28;20725;-41
2021/05/17 11:45:26;;;;;;;3.65;1.00;;;13.20;99.90;;;;;;5093054;28;20233;-42
2021/05/17 11:47:54;;;;;;;1.55;0.40;;;12.90;99.90;;;;;;5093480;28;20253;-40
2021/05/17 11:50:22;;;;;;;1.38;0.45;;;12.70;99.90;;;;;;5092544;28;20297;-42
2021/05/17 11:52:49;;;;;;;2.53;1.92;;;12.60;99.90;;;;;;5092230;28;20424;-41
2021/05/17 11:55:17;;;;;;;4.82;1.23;;;12.60;99.90;;;;;;5092360;28;20202;-41
2021/05/17 11:57:44;;;;;;;1.85;0.60;;;12.90;99.90;;;;;;5092411;28;20297;-41
2021/05/17 12:00:14;;;;;;;2.28;1.10;;;13.20;99.90;;;;;;5092518;28;20242;-42
2021/05/17 12:02:45;;;;;;;1.05;0.63;;;13.60;99.90;;;;;;5092449;28;20254;-42
2021/05/17 12:05:14;;;;;;;1.00;0.60;;;14.00;99.90;;;;;;5092397;28;20240;-41
2021/05/17 12:07:43;;;;;;;1.65;0.80;;;14.40;99.90;;;;;;5092272;28;20234;-41
2021/05/17 12:10:12;;;;;;;2.22;0.55;;;14.70;99.90;;;;;;5092098;28;20206;-40
2021/05/17 12:12:44;;;;;;;1.85;0.88;;;14.90;99.90;;;;;;5093421;28;20211;-40
2021/05/17 12:15:16;;;;;;;1.83;0.88;;;14.90;99.90;;;;;;5093087;28;20695;-41
2021/05/17 12:17:44;;;;;;;2.60;0.90;;;15.00;99.90;;;;;;5091787;28;20294;-39
2021/05/17 12:20:13;;;;;;;1.13;1.02;;;15.00;99.90;;;;;;5092076;28;20207;-39
2021/05/17 12:22:43;;;;;;;1.50;1.20;;;15.10;99.90;;;;;;5091848;28;20222;-39
2021/05/17 12:25:14;;;;;;;2.40;1.30;;;15.40;99.90;;;;;;5092079;28;20239;-39
2021/05/17 12:27:44;;;;;;;1.33;0.68;;;15.80;99.90;;;;;;5092141;28;20230;-39
2021/05/17 12:30:14;;;;;;;1.25;1.05;;;16.10;99.90;;;;;;5091885;28;20233;-40
2021/05/17 12:32:43;;;;;;;0.57;0.57;;;16.30;99.90;;;;;;5091810;28;20267;-40
2021/05/17 12:35:14;;;;;;;0.90;0.52;;;16.50;99.90;;;;;;5092198;28;20670;-40
2021/05/17 12:37:45;;;;;;;1.42;0.28;;;16.60;98.40;;;;;;5092748;28;20203;-40
2021/05/17 12:40:21;;;;;;;1.15;0.82;;;16.70;98.30;;;;;;5092430;28;20252;-41
2021/05/17 12:43:01;;;;;;;0.73;0.57;;;16.70;97.70;;;;;;5093727;28;20291;-39
2021/05/17 12:45:28;;;;;;;1.52;0.73;;;16.90;96.50;;;;;;5091788;28;20229;-39
2021/05/17 12:47:57;;;;;;;1.25;0.80;;;16.90;96.60;;;;;;5091791;28;20210;-40
2021/05/17 12:50:27;;;;;;;1.70;0.63;;;17.20;96.30;;;;;;5091538;28;20242;-41
2021/05/17 12:53:09;;;;;;;0.70;0.40;;;17.40;95.50;;;;;;5091757;28;20209;-41
2021/05/17 12:55:39;;;;;;;1.65;0.60;;;17.30;93.60;;;;;;5092058;28;20297;-42
2021/05/17 12:58:07;;;;;;;0.73;0.60;;;17.00;95.10;;;;;;5091742;28;20301;-40
2021/05/17 13:00:38;;;;;;;2.92;1.10;;;16.60;95.20;;;;;;5091636;28;20542;-41
2021/05/17 13:03:08;;;;;;;1.88;1.48;;;16.20;96.40;;;;;;5091658;28;20309;-41
2021/05/17 13:05:54;;;;;;;2.65;0.63;;;15.80;97.20;;;;;;5091550;28;20297;-41
2021/05/17 13:08:27;;;;;;;1.30;1.00;;;15.70;98.10;;;;;;5091507;28;20229;-42
2021/05/17 13:10:59;;;;;;;1.10;0.80;;;15.70;98.10;;;;;;5091586;28;20242;-40
2021/05/17 13:13:54;;;;;;;2.63;2.38;;;15.90;98.10;;;;;;5091438;28;20270;-40
2021/05/17 13:16:25;;;;;;;2.10;1.90;;;16.10;97.50;;;;;;5091886;28;20700;-40
2021/05/17 13:19:32;;;;;;;1.80;1.10;;;16.20;97.70;;;;;;5091932;28;20378;-41